Time;durP1;ratioP1;P1;durP2;ratioP2;P2;SDS_P1;SDS_P2;PMS_P1;PMS_P2;Temp;Humidity;BMP_temperature;BMP_pressure;BME280_temperature;BME280_humidity;BME280_pressure;Samples;Min_cycle;Max_cycle;Signal;HPM_P1;HPM_P2
2023/04/16 00:02:03;;;;;;;9.23;4.60;;;;;;;8.24;88.31;101978.38;5148892;27;20069;-70
2023/04/16 00:04:32;;;;;;;13.38;4.97;;;;;;;8.25;88.34;101979.25;5151956;27;20050;-70
2023/04/16 00:07:01;;;;;;;11.18;4.93;;;;;;;8.25;88.72;101979.25;5145003;27;20071;-70
2023/04/16 00:09:28;;;;;;;19.05;5.18;;;;;;;8.28;88.93;101981.00;5115221;27;20043;-70
2023/04/16 00:11:55;;;;;;;12.05;5.45;;;;;;;8.24;89.18;101972.25;5122817;27;20046;-69
2023/04/16 00:14:22;;;;;;;14.05;5.50;;;;;;;8.23;89.21;101976.66;5139020;27;20047;-69
2023/04/16 00:16:50;;;;;;;11.68;5.32;;;;;;;8.26;89.47;101978.38;5111515;27;20035;-69
2023/04/16 00:19:17;;;;;;;11.77;4.97;;;;;;;8.27;89.47;101979.25;5123687;27;20051;-71
2023/04/16 00:21:44;;;;;;;15.82;5.80;;;;;;;8.26;89.88;101970.50;5121105;27;20039;-70
2023/04/16 00:24:12;;;;;;;10.35;5.18;;;;;;;8.25;90.49;101974.00;5115856;27;20105;-70
2023/04/16 00:26:39;;;;;;;12.30;5.32;;;;;;;8.23;90.49;101978.38;5132420;27;20036;-70
2023/04/16 00:29:07;;;;;;;18.75;6.20;;;;;;;8.21;90.48;101972.25;5133277;27;20031;-70
2023/04/16 00:31:35;;;;;;;12.85;5.57;;;;;;;8.24;91.11;101969.63;5137590;27;20734;-70
2023/04/16 00:34:03;;;;;;;16.38;6.03;;;;;;;8.20;90.88;101973.13;5142018;27;20039;-70
2023/04/16 00:36:30;;;;;;;15.63;6.75;;;;;;;8.23;90.84;101981.91;5148573;27;20039;-70
2023/04/16 00:38:57;;;;;;;11.85;6.00;;;;;;;8.24;91.47;101975.75;5142799;27;20066;-70
2023/04/16 00:41:25;;;;;;;14.25;5.93;;;;;;;8.25;91.20;101968.75;5148367;27;20100;-69
2023/04/16 00:43:53;;;;;;;17.10;6.20;;;;;;;8.26;91.35;101973.13;5125319;27;20038;-70
2023/04/16 00:46:22;;;;;;;13.88;6.43;;;;;;;8.27;91.26;101971.38;5146003;27;20536;-69
2023/04/16 00:48:53;;;;;;;18.95;6.57;;;;;;;8.30;91.14;101979.25;5135721;27;20047;-70
2023/04/16 00:51:21;;;;;;;15.80;6.28;;;;;;;8.33;91.35;101974.00;5127818;27;20085;-70
2023/04/16 00:53:48;;;;;;;15.98;6.93;;;;;;;8.33;91.18;101985.38;5128027;27;20154;-70
2023/04/16 00:56:16;;;;;;;11.40;6.20;;;;;;;8.31;91.56;101984.50;5134374;27;20840;-72
2023/04/16 00:58:44;;;;;;;12.55;6.28;;;;;;;8.32;91.73;101983.63;5113787;27;20107;-70
2023/04/16 01:01:13;;;;;;;14.88;6.18;;;;;;;8.33;91.73;101980.13;5137383;27;20054;-70
2023/04/16 01:03:47;;;;;;;16.48;7.00;;;;;;;8.36;92.47;101984.47;5143511;27;20291;-70
2023/04/16 01:06:17;;;;;;;15.20;6.95;;;;;;;8.34;91.91;101984.50;5128167;27;20038;-70
2023/04/16 01:08:45;;;;;;;19.70;6.80;;;;;;;8.35;92.14;101975.72;5128983;27;20039;-70
2023/04/16 01:11:14;;;;;;;14.00;6.72;;;;;;;8.38;92.26;101985.34;5110061;27;20035;-70
2023/04/16 01:13:41;;;;;;;15.75;6.97;;;;;;;8.35;92.21;101974.84;5123269;27;20096;-70
2023/04/16 01:16:11;;;;;;;16.52;7.28;;;;;;;8.36;92.17;101972.22;5136547;27;20897;-70
2023/04/16 01:18:38;;;;;;;15.43;7.78;;;;;;;8.38;92.38;101985.34;5124625;27;20515;-69
2023/04/16 01:21:06;;;;;;;19.73;7.28;;;;;;;8.44;92.54;101981.84;5130117;27;20979;-69
2023/04/16 01:23:33;;;;;;;16.40;7.05;;;;;;;8.40;92.57;101986.22;5127124;27;20051;-70
2023/04/16 01:26:01;;;;;;;16.48;7.00;;;;;;;8.39;92.69;101982.72;5118984;27;20039;-70
2023/04/16 01:28:29;;;;;;;14.30;7.20;;;;;;;8.44;93.13;101976.59;5127345;27;20576;-70
2023/04/16 01:30:56;;;;;;;15.77;7.20;;;;;;;8.40;93.07;101975.72;5127677;27;20545;-69
2023/04/16 01:33:36;;;;;;;19.02;7.80;;;;;;;8.41;93.11;101974.84;5126389;27;20045;-68
2023/04/16 01:36:03;;;;;;;18.10;7.93;;;;;;;8.40;93.29;101966.06;5096302;27;20507;-68
2023/04/16 01:38:30;;;;;;;17.95;8.40;;;;;;;8.38;93.54;101974.84;5131264;27;20083;-68
2023/04/16 01:40:58;;;;;;;18.50;8.15;;;;;;;8.38;93.76;101969.59;5096809;27;20539;-69
2023/04/16 01:43:25;;;;;;;17.35;8.70;;;;;;;8.38;93.57;101974.84;5121276;27;20122;-69
2023/04/16 01:46:13;;;;;;;19.45;8.80;;;;;;;8.39;93.93;101971.34;5133686;27;20086;-69
2023/04/16 01:48:41;;;;;;;21.00;8.80;;;;;;;8.38;93.93;101965.22;5095675;27;20043;-69
2023/04/16 01:51:09;;;;;;;22.98;8.43;;;;;;;8.40;94.08;101983.59;5132464;27;20122;-69
2023/04/16 01:53:36;;;;;;;17.60;8.55;;;;;;;8.42;94.22;101980.97;5129853;27;20039;-69
2023/04/16 01:56:03;;;;;;;18.73;8.75;;;;;;;8.40;93.91;101973.09;5145420;27;20043;-70
2023/04/16 01:58:32;;;;;;;20.15;8.55;;;;;;;8.40;94.22;101980.97;5146572;27;20794;-69
2023/04/16 02:00:59;;;;;;;20.20;8.13;;;;;;;8.42;94.44;101978.34;5113189;27;20024;-70
2023/04/16 02:03:27;;;;;;;17.15;9.07;;;;;;;8.41;94.35;101980.09;5116152;27;20112;-69
2023/04/16 02:05:54;;;;;;;17.02;8.60;;;;;;;8.41;94.26;101974.84;5115340;27;20044;-69
2023/04/16 02:08:22;;;;;;;18.13;8.63;;;;;;;8.43;94.44;101986.22;5145950;27;20120;-69
2023/04/16 02:10:49;;;;;;;18.38;8.40;;;;;;;8.43;94.61;101986.22;5144489;27;20039;-69
2023/04/16 02:13:16;;;;;;;17.90;8.75;;;;;;;8.44;94.49;101984.47;5145165;27;20039;-70
2023/04/16 02:15:48;;;;;;;19.90;9.75;;;;;;;8.43;94.56;101990.59;5112107;27;20525;-69
2023/04/16 02:18:20;;;;;;;19.13;9.20;;;;;;;8.42;94.72;101986.22;5133834;27;20035;-69
2023/04/16 02:20:48;;;;;;;18.42;9.18;;;;;;;8.39;94.52;101979.22;5121746;27;20185;-69
2023/04/16 02:23:16;;;;;;;21.08;9.27;;;;;;;8.40;94.82;101986.22;5119450;27;20280;-69
2023/04/16 02:25:46;;;;;;;20.55;9.52;;;;;;;8.43;94.79;101977.47;5126573;27;20137;-68
2023/04/16 02:28:16;;;;;;;18.42;8.90;;;;;;;8.45;94.79;101978.34;5118764;27;20119;-68
2023/04/16 02:30:45;;;;;;;19.58;9.18;;;;;;;8.44;94.80;101987.09;5121459;27;20046;-68
2023/04/16 02:33:14;;;;;;;23.10;9.40;;;;;;;8.46;95.02;101977.47;5111254;27;20074;-68
2023/04/16 02:35:52;;;;;;;22.60;10.15;;;;;;;8.46;94.75;101973.06;5122215;27;20062;-67
2023/04/16 02:38:19;;;;;;;24.50;10.35;;;;;;;8.49;95.02;101978.34;5146694;27;20031;-68
2023/04/16 02:40:46;;;;;;;24.42;10.05;;;;;;;8.48;94.92;101981.00;5134191;27;20051;-68
2023/04/16 02:43:13;;;;;;;20.88;10.32;;;;;;;8.48;95.08;101983.63;5144246;27;20075;-69
2023/04/16 02:45:40;;;;;;;26.02;10.23;;;;;;;8.46;95.18;101986.19;5117560;27;20112;-69
2023/04/16 02:48:08;;;;;;;24.35;10.50;;;;;;;8.50;95.29;101979.22;5133266;27;20039;-70
2023/04/16 02:50:35;;;;;;;25.13;10.80;;;;;;;8.46;95.15;101978.31;5126859;27;20031;-69
2023/04/16 02:53:03;;;;;;;27.58;10.05;;;;;;;8.49;95.33;101982.75;5123434;27;20039;-70
2023/04/16 02:55:30;;;;;;;26.80;11.20;;;;;;;8.47;95.44;101979.22;5115034;27;20047;-69
2023/04/16 02:57:57;;;;;;;25.13;10.63;;;;;;;8.47;95.72;101979.22;5109424;27;20036;-70
2023/04/16 03:00:24;;;;;;;27.10;13.00;;;;;;;8.46;95.79;101985.34;5124087;27;20085;-69
2023/04/16 03:02:51;;;;;;;26.83;12.52;;;;;;;8.51;95.41;101988.84;5108790;27;20063;-70
2023/04/16 03:05:18;;;;;;;29.13;11.60;;;;;;;8.47;95.58;101987.09;5119517;27;20039;-70
2023/04/16 03:07:45;;;;;;;29.35;11.82;;;;;;;8.47;95.71;101989.72;5126768;27;20509;-70
2023/04/16 03:10:14;;;;;;;28.48;12.70;;;;;;;8.46;95.56;101987.97;5134960;27;20043;-70
2023/04/16 03:12:41;;;;;;;28.63;12.57;;;;;;;8.45;95.42;101992.34;5131875;27;20116;-70
2023/04/16 03:15:09;;;;;;;29.38;12.93;;;;;;;8.47;95.53;101990.63;5142111;27;20071;-70
2023/04/16 03:17:36;;;;;;;22.77;12.13;;;;;;;8.47;95.69;101992.34;5096331;27;20631;-68
2023/04/16 03:20:04;;;;;;;29.05;12.95;;;;;;;8.48;95.57;101997.63;5124156;27;20070;-69
2023/04/16 03:22:32;;;;;;;25.63;11.90;;;;;;;8.49;95.75;102001.13;5139753;27;20071;-70
2023/04/16 03:24:59;;;;;;;27.38;12.85;;;;;;;8.50;95.57;102002.88;5136011;27;20587;-69
2023/04/16 03:27:26;;;;;;;29.48;12.68;;;;;;;8.52;95.67;102004.63;5116949;27;22286;-70
2023/04/16 03:29:54;;;;;;;32.55;13.95;;;;;;;8.51;95.58;102005.50;5143371;27;20035;-70
2023/04/16 03:32:21;;;;;;;26.08;12.68;;;;;;;8.52;95.68;102006.38;5131293;27;20542;-70
2023/04/16 03:34:48;;;;;;;26.00;12.35;;;;;;;8.51;95.82;102001.97;5130789;27;20535;-69
2023/04/16 03:37:15;;;;;;;29.10;12.55;;;;;;;8.51;95.57;101999.34;5126276;27;20063;-69
2023/04/16 03:39:43;;;;;;;27.25;12.65;;;;;;;8.52;95.51;102001.09;5133181;27;20058;-69
2023/04/16 03:42:10;;;;;;;26.75;13.32;;;;;;;8.51;95.59;101999.34;5112184;27;20132;-69
2023/04/16 03:44:37;;;;;;;31.08;13.95;;;;;;;8.53;95.73;102001.13;5147390;27;20094;-69
2023/04/16 03:47:05;;;;;;;30.88;14.43;;;;;;;8.55;95.50;101999.34;5112568;27;20028;-70
2023/04/16 03:49:31;;;;;;;30.02;14.40;;;;;;;8.59;95.38;102004.59;5128153;27;20043;-70
2023/04/16 03:51:59;;;;;;;31.75;12.90;;;;;;;8.53;95.52;102013.38;5147609;27;20035;-69
2023/04/16 03:54:26;;;;;;;27.98;13.13;;;;;;;8.51;95.49;102007.25;5129710;27;20513;-68
2023/04/16 03:57:05;;;;;;;26.67;12.82;;;;;;;8.51;95.82;102004.63;5132085;27;20047;-68
2023/04/16 03:59:32;;;;;;;28.63;13.30;;;;;;;8.52;95.47;102014.25;5113521;27;20042;-69
2023/04/16 04:01:59;;;;;;;27.83;13.95;;;;;;;8.50;95.49;102011.63;5129744;27;20115;-68
2023/04/16 04:04:26;;;;;;;27.40;13.18;;;;;;;8.51;95.46;102012.50;5131164;27;20040;-69
2023/04/16 04:06:54;;;;;;;25.25;12.27;;;;;;;8.50;95.53;102009.00;5128774;27;20050;-69
2023/04/16 04:09:22;;;;;;;27.35;13.75;;;;;;;8.51;95.59;102013.41;5121797;27;20150;-70
2023/04/16 04:11:49;;;;;;;32.47;13.10;;;;;;;8.51;95.89;102012.50;5132492;27;20059;-69
2023/04/16 04:14:16;;;;;;;25.92;13.00;;;;;;;8.52;95.77;102009.00;5145879;27;20128;-70
2023/04/16 04:16:43;;;;;;;27.38;13.05;;;;;;;8.52;95.38;102011.63;5119357;27;20086;-70
2023/04/16 04:19:11;;;;;;;30.67;14.00;;;;;;;8.53;95.77;102002.88;5115367;27;20075;-71
2023/04/16 04:21:38;;;;;;;31.95;14.60;;;;;;;8.51;95.88;102008.13;5130345;27;20035;-70
2023/04/16 04:24:05;;;;;;;32.70;15.73;;;;;;;8.53;95.76;102011.63;5128278;27;20032;-71
2023/04/16 04:26:33;;;;;;;32.28;15.27;;;;;;;8.54;95.73;102013.41;5133052;27;20028;-70
2023/04/16 04:29:00;;;;;;;33.88;15.93;;;;;;;8.53;96.05;102013.38;5137273;27;20039;-70
2023/04/16 04:31:29;;;;;;;35.30;16.35;;;;;;;8.53;95.74;102021.25;5128274;27;20055;-70
2023/04/16 04:33:56;;;;;;;31.23;15.38;;;;;;;8.55;95.99;102027.41;5148098;27;20047;-70
2023/04/16 04:36:23;;;;;;;38.10;15.27;;;;;;;8.54;96.00;102023.00;5148566;27;20555;-70
2023/04/16 04:38:50;;;;;;;31.60;15.25;;;;;;;8.54;95.81;102023.91;5118015;27;20101;-70
2023/04/16 04:41:20;;;;;;;28.95;15.40;;;;;;;8.52;95.89;102036.16;5122564;27;20570;-70
2023/04/16 04:43:47;;;;;;;30.27;16.20;;;;;;;8.51;96.25;102036.16;5107874;27;20035;-70
2023/04/16 04:46:15;;;;;;;36.58;16.50;;;;;;;8.53;96.00;102030.03;5117294;27;20071;-70
2023/04/16 04:48:42;;;;;;;33.78;15.88;;;;;;;8.52;95.96;102032.66;5115139;27;20081;-70
2023/04/16 04:51:09;;;;;;;31.77;17.23;;;;;;;8.54;96.00;102037.06;5130438;27;20126;-70
2023/04/16 04:53:36;;;;;;;40.53;18.40;;;;;;;8.54;96.02;102046.66;5141383;27;20038;-70
2023/04/16 04:56:04;;;;;;;35.38;17.25;;;;;;;8.52;96.30;102037.91;5100366;27;21016;-70
2023/04/16 04:58:40;;;;;;;38.10;16.17;;;;;;;8.50;96.33;102045.81;5127590;27;20035;-68
2023/04/16 05:01:07;;;;;;;34.55;15.93;;;;;;;8.52;96.61;102041.44;5126476;27;20039;-69
2023/04/16 05:03:34;;;;;;;37.80;17.05;;;;;;;8.50;96.55;102047.53;5137420;27;20073;-68
2023/04/16 05:06:02;;;;;;;34.53;16.38;;;;;;;8.50;96.67;102044.91;5157769;27;20071;-68
2023/04/16 05:08:28;;;;;;;34.38;16.67;;;;;;;8.52;96.77;102051.94;5156102;27;20717;-68
2023/04/16 05:10:55;;;;;;;38.03;16.30;;;;;;;8.53;96.87;102053.69;5155493;27;20045;-68
2023/04/16 05:13:23;;;;;;;32.95;16.55;;;;;;;8.51;97.00;102055.44;5154847;27;20062;-69
2023/04/16 05:15:50;;;;;;;35.70;17.27;;;;;;;8.54;97.20;102065.06;5150481;27;20370;-69
2023/04/16 05:18:17;;;;;;;36.08;17.08;;;;;;;8.53;97.31;102058.94;5123215;27;20055;-70
2023/04/16 05:20:44;;;;;;;35.78;16.98;;;;;;;8.57;97.00;102059.81;5151082;27;20115;-71
2023/04/16 05:23:11;;;;;;;36.00;15.05;;;;;;;8.59;97.25;102065.94;5128992;27;20585;-71
2023/04/16 05:25:38;;;;;;;42.25;17.50;;;;;;;8.60;97.14;102053.66;5132166;27;20585;-71
2023/04/16 05:28:05;;;;;;;36.47;17.45;;;;;;;8.60;96.90;102062.41;5111527;27;20046;-70
2023/04/16 05:30:32;;;;;;;38.22;17.27;;;;;;;8.59;97.29;102062.44;5147312;27;20035;-71
2023/04/16 05:32:59;;;;;;;35.80;16.25;;;;;;;8.59;97.66;102063.31;5125482;27;20829;-71
2023/04/16 05:35:27;;;;;;;35.53;16.50;;;;;;;8.60;97.41;102072.06;5123292;27;20114;-71
2023/04/16 05:37:54;;;;;;;35.85;16.80;;;;;;;8.60;97.43;102064.19;5147386;27;20027;-71
2023/04/16 05:40:21;;;;;;;35.00;16.50;;;;;;;8.63;97.15;102069.44;5139964;27;20055;-70
2023/04/16 05:42:48;;;;;;;34.10;16.45;;;;;;;8.64;97.35;102072.06;5154445;27;20035;-71
2023/04/16 05:45:15;;;;;;;36.72;16.17;;;;;;;8.65;97.38;102062.41;5132247;27;20081;-71
2023/04/16 05:47:42;;;;;;;38.33;17.42;;;;;;;8.68;97.29;102072.91;5146453;27;20040;-71
2023/04/16 05:50:10;;;;;;;39.13;17.63;;;;;;;8.71;97.21;102070.28;5135472;27;20039;-70
2023/04/16 05:52:37;;;;;;;38.38;17.33;;;;;;;8.72;97.35;102068.53;5154608;27;20136;-70
2023/04/16 05:55:06;;;;;;;35.53;16.63;;;;;;;8.71;97.47;102067.66;5150465;27;20042;-70
2023/04/16 05:57:33;;;;;;;32.53;17.20;;;;;;;8.71;97.12;102070.28;5151422;27;20673;-70
2023/04/16 05:59:59;;;;;;;42.60;17.30;;;;;;;8.72;97.38;102072.03;5138700;27;20035;-69
2023/04/16 06:02:29;;;;;;;38.75;16.98;;;;;;;8.78;97.32;102072.00;5151295;27;20043;-71
2023/04/16 06:04:56;;;;;;;36.15;17.17;;;;;;;8.84;97.30;102085.16;5112500;27;20158;-70
2023/04/16 06:07:23;;;;;;;35.97;16.75;;;;;;;8.93;96.15;102078.97;5134703;27;20046;-70
2023/04/16 06:09:50;;;;;;;32.10;17.20;;;;;;;8.97;96.06;102079.84;5136219;27;20043;-70
2023/04/16 06:12:17;;;;;;;33.92;17.30;;;;;;;8.97;96.09;102082.47;5158163;27;20042;-69
2023/04/16 06:14:44;;;;;;;36.13;17.60;;;;;;;9.04;96.10;102085.94;5127250;27;20832;-71
2023/04/16 06:17:11;;;;;;;32.95;15.65;;;;;;;9.08;95.91;102091.19;5135314;27;20970;-71
2023/04/16 06:19:38;;;;;;;34.80;16.15;;;;;;;9.16;95.68;102088.53;5131348;27;20039;-71
2023/04/16 06:22:06;;;;;;;34.35;16.60;;;;;;;9.20;94.81;102094.66;5159572;27;20043;-70
2023/04/16 06:24:33;;;;;;;34.65;16.95;;;;;;;9.17;94.52;102096.41;5134115;27;20058;-70
2023/04/16 06:26:59;;;;;;;34.67;17.10;;;;;;;9.16;94.63;102094.66;5157507;27;20036;-71
2023/04/16 06:29:27;;;;;;;36.17;17.67;;;;;;;9.13;94.99;102097.31;5130159;27;20039;-71
2023/04/16 06:32:07;;;;;;;34.97;17.05;;;;;;;9.18;95.01;102107.81;5149949;27;20042;-71
2023/04/16 06:34:35;;;;;;;34.38;17.02;;;;;;;9.19;94.49;102109.59;5132629;27;20594;-71
2023/04/16 06:37:01;;;;;;;34.22;17.02;;;;;;;9.25;94.33;102116.56;5138367;27;20134;-71
2023/04/16 06:39:29;;;;;;;35.95;17.10;;;;;;;9.21;93.89;102117.44;5158715;27;20481;-70
2023/04/16 06:41:56;;;;;;;34.80;17.65;;;;;;;9.16;94.24;102125.38;5157405;27;20120;-71
2023/04/16 06:44:23;;;;;;;38.42;17.92;;;;;;;9.13;94.32;102128.00;5148152;27;20036;-70
2023/04/16 06:46:50;;;;;;;42.13;18.70;;;;;;;9.11;94.67;102130.66;5148202;27;20043;-70
2023/04/16 06:49:17;;;;;;;35.25;18.15;;;;;;;9.09;94.39;102132.41;5143377;27;20031;-70
2023/04/16 06:51:44;;;;;;;34.80;17.40;;;;;;;9.11;94.78;102128.00;5134367;27;20038;-71
2023/04/16 06:54:11;;;;;;;37.30;17.95;;;;;;;9.05;94.94;102125.41;5129789;27;20043;-70
2023/04/16 06:56:38;;;;;;;36.90;17.98;;;;;;;9.09;94.97;102134.16;5146113;27;20054;-72
2023/04/16 06:59:06;;;;;;;38.63;19.88;;;;;;;9.06;95.02;102142.94;5156406;27;20039;-71
2023/04/16 07:01:34;;;;;;;38.92;18.13;;;;;;;9.04;95.15;102141.19;5151308;27;20534;-70
2023/04/16 07:04:02;;;;;;;35.35;18.17;;;;;;;9.06;94.98;102137.66;5157838;27;20060;-70
2023/04/16 07:06:30;;;;;;;38.15;17.92;;;;;;;9.06;94.81;102142.06;5138166;27;20042;-71
2023/04/16 07:08:57;;;;;;;32.65;17.23;;;;;;;9.07;94.72;102143.81;5138702;27;20050;-70
2023/04/16 07:11:25;;;;;;;35.15;16.95;;;;;;;9.06;95.19;102152.59;5158412;27;20043;-70
2023/04/16 07:13:53;;;;;;;37.72;18.77;;;;;;;9.08;94.96;102141.16;5160279;27;20520;-70
2023/04/16 07:16:20;;;;;;;33.92;16.95;;;;;;;9.14;94.86;102150.81;5150369;27;20039;-70
2023/04/16 07:18:48;;;;;;;34.60;17.52;;;;;;;9.21;94.36;102155.16;5153279;27;20063;-71
2023/04/16 07:21:15;;;;;;;34.13;18.35;;;;;;;9.23;94.31;102150.75;5140908;27;20035;-70
2023/04/16 07:23:42;;;;;;;32.35;17.27;;;;;;;9.30;94.18;102159.53;5131203;27;20039;-69
2023/04/16 07:26:10;;;;;;;32.05;17.30;;;;;;;9.32;93.62;102152.50;5126910;27;20908;-69
2023/04/16 07:28:37;;;;;;;35.42;18.35;;;;;;;9.35;93.46;102157.75;5125525;27;20388;-69
2023/04/16 07:31:04;;;;;;;34.60;17.33;;;;;;;9.39;93.50;102158.63;5147302;27;20035;-69
2023/04/16 07:33:32;;;;;;;35.25;16.23;;;;;;;9.39;93.28;102164.75;5149769;27;20036;-68
2023/04/16 07:35:59;;;;;;;31.55;17.10;;;;;;;9.39;93.14;102163.88;5149378;27;20075;-70
2023/04/16 07:38:26;;;;;;;26.73;16.05;;;;;;;9.46;92.39;102163.81;5111847;27;20039;-70
2023/04/16 07:40:55;;;;;;;30.52;16.17;;;;;;;9.46;92.51;102169.09;5142918;27;20108;-70
2023/04/16 07:43:22;;;;;;;31.42;16.48;;;;;;;9.50;92.21;102169.97;5134005;27;20035;-68
2023/04/16 07:45:49;;;;;;;34.92;17.10;;;;;;;9.57;92.50;102173.44;5137964;27;20039;-68
2023/04/16 07:48:16;;;;;;;30.38;16.45;;;;;;;9.69;91.77;102175.16;5138703;27;20597;-70
2023/04/16 07:50:43;;;;;;;27.08;15.48;;;;;;;9.72;91.28;102181.28;5130772;27;20050;-68
2023/04/16 07:53:10;;;;;;;29.17;15.93;;;;;;;9.74;91.55;102173.34;5146842;27;20570;-69
2023/04/16 07:55:37;;;;;;;26.45;16.60;;;;;;;9.76;90.94;102176.84;5120937;27;20035;-68
2023/04/16 07:58:06;;;;;;;27.95;16.27;;;;;;;9.80;90.78;102181.22;5148441;27;20050;-69
2023/04/16 08:00:34;;;;;;;29.63;16.30;;;;;;;9.97;89.82;102183.75;5139813;27;20039;-69
2023/04/16 08:03:01;;;;;;;34.88;16.45;;;;;;;10.16;89.08;102183.66;5134490;27;20101;-69
2023/04/16 08:05:28;;;;;;;29.33;15.80;;;;;;;10.37;88.25;102179.97;5115258;27;20063;-69
2023/04/16 08:07:55;;;;;;;25.17;15.43;;;;;;;10.47;87.61;102194.00;5147291;27;20041;-68
2023/04/16 08:10:22;;;;;;;26.23;15.07;;;;;;;10.50;87.22;102197.47;5138150;27;20118;-68
2023/04/16 08:12:52;;;;;;;24.48;14.45;;;;;;;10.69;86.17;102200.81;5132315;27;20047;-70
2023/04/16 08:15:19;;;;;;;28.08;16.00;;;;;;;10.85;85.78;102203.31;5137611;27;20032;-68
2023/04/16 08:17:46;;;;;;;23.70;14.27;;;;;;;10.92;85.19;102199.72;5144730;27;20035;-70
2023/04/16 08:20:13;;;;;;;23.77;14.20;;;;;;;10.88;85.46;102212.06;5136811;27;20044;-69
2023/04/16 08:22:45;;;;;;;27.75;14.50;;;;;;;10.86;85.42;102205.06;5123875;27;20511;-69
2023/04/16 08:25:13;;;;;;;25.02;14.60;;;;;;;10.82;85.26;102205.97;5137778;27;20103;-69
2023/04/16 08:27:40;;;;;;;23.75;13.95;;;;;;;10.83;84.47;102210.34;5145944;27;20043;-68
2023/04/16 08:30:07;;;;;;;27.17;15.00;;;;;;;10.85;83.80;102216.50;5101221;27;20508;-68
2023/04/16 08:32:34;;;;;;;26.88;14.57;;;;;;;10.86;84.14;102216.47;5145378;27;20503;-69
2023/04/16 08:35:01;;;;;;;25.70;14.30;;;;;;;11.03;84.28;102213.66;5123641;27;20040;-69
2023/04/16 08:37:28;;;;;;;23.30;14.07;;;;;;;11.18;83.28;102223.19;5138587;27;20039;-69
2023/04/16 08:39:55;;;;;;;28.63;14.27;;;;;;;11.16;82.79;102224.97;5135419;27;20031;-69
2023/04/16 08:42:43;;;;;;;24.85;13.85;;;;;;;11.08;82.40;102232.09;5140342;27;20055;-69
2023/04/16 08:45:16;;;;;;;25.90;14.15;;;;;;;11.10;82.41;102229.44;5126103;27;20050;-69
2023/04/16 08:47:51;;;;;;;23.75;14.57;;;;;;;11.33;82.89;102231.84;5140828;27;20728;-69
2023/04/16 08:50:24;;;;;;;25.55;14.48;;;;;;;11.52;81.71;102232.50;5156069;27;20032;-69
2023/04/16 08:53:05;;;;;;;25.60;14.35;;;;;;;11.60;81.44;102238.53;5129562;27;20064;-69
2023/04/16 08:55:50;;;;;;;22.67;13.00;;;;;;;11.60;79.40;102233.25;5129114;27;20035;-69
2023/04/16 08:58:21;;;;;;;23.58;13.85;;;;;;;11.45;80.04;102239.59;5123910;27;20466;-69
2023/04/16 09:00:49;;;;;;;22.67;14.00;;;;;;;11.42;80.24;102246.69;5131607;27;20043;-69
2023/04/16 09:03:20;;;;;;;23.17;13.88;;;;;;;11.32;80.19;102249.44;5109797;27;20115;-69
2023/04/16 09:05:49;;;;;;;21.05;13.38;;;;;;;11.28;80.57;102246.84;5126948;27;20046;-69
2023/04/16 09:08:17;;;;;;;24.67;14.35;;;;;;;11.23;80.32;102248.69;5129869;27;20552;-70
2023/04/16 09:10:44;;;;;;;23.15;14.50;;;;;;;11.23;80.92;102246.03;5121732;27;20042;-69
2023/04/16 09:13:15;;;;;;;24.60;13.93;;;;;;;11.32;81.41;102246.81;5168710;27;20034;-69
2023/04/16 09:15:43;;;;;;;23.98;14.48;;;;;;;11.49;80.45;102245.75;5160324;27;20045;-69
2023/04/16 09:18:11;;;;;;;22.58;12.90;;;;;;;11.50;79.98;102247.47;5169053;27;20045;-69
2023/04/16 09:20:38;;;;;;;20.27;13.18;;;;;;;11.53;80.17;102250.09;5132632;27;20032;-70
2023/04/16 09:23:05;;;;;;;23.52;13.93;;;;;;;11.49;80.18;102248.41;5150725;27;20047;-70
2023/04/16 09:25:37;;;;;;;24.27;13.40;;;;;;;11.48;80.04;102252.78;5143522;27;20031;-69
2023/04/16 09:28:04;;;;;;;25.90;14.73;;;;;;;11.48;79.47;102254.56;5121283;27;20172;-70
2023/04/16 09:30:32;;;;;;;26.52;14.18;;;;;;;11.46;80.25;102251.91;5136616;27;20038;-70
2023/04/16 09:33:11;;;;;;;21.90;13.23;;;;;;;11.57;79.41;102259.75;5158930;27;20046;-70
2023/04/16 09:35:47;;;;;;;25.90;14.02;;;;;;;11.57;79.93;102265.03;5158179;27;20034;-69
2023/04/16 09:38:14;;;;;;;24.55;13.88;;;;;;;11.72;79.21;102260.41;5138391;27;20045;-70
2023/04/16 09:40:42;;;;;;;26.33;14.20;;;;;;;11.80;78.55;102256.81;5156865;27;20058;-70
2023/04/16 09:43:17;;;;;;;26.05;13.73;;;;;;;11.98;77.61;102259.25;5115603;27;20050;-69
2023/04/16 09:45:53;;;;;;;27.00;14.20;;;;;;;12.08;77.81;102267.03;5139905;27;20045;-69
2023/04/16 09:48:32;;;;;;;24.25;14.55;;;;;;;12.24;76.75;102261.53;5142660;27;20089;-70
2023/04/16 09:51:00;;;;;;;21.92;13.32;;;;;;;12.38;76.57;102261.31;5141818;27;20046;-69
2023/04/16 09:53:30;;;;;;;26.15;13.55;;;;;;;12.56;75.63;102257.53;5146701;27;20063;-69
2023/04/16 09:55:59;;;;;;;22.77;12.75;;;;;;;12.76;74.63;102264.28;5150024;27;20559;-69
2023/04/16 09:58:27;;;;;;;23.00;12.90;;;;;;;13.09;73.30;102264.56;5125389;27;20514;-69
2023/04/16 10:01:00;;;;;;;21.88;12.50;;;;;;;13.41;73.33;102257.81;5159711;27;20035;-69
2023/04/16 10:03:33;;;;;;;22.17;12.27;;;;;;;13.73;72.25;102262.47;5150929;27;20038;-69
2023/04/16 10:06:19;;;;;;;22.27;12.43;;;;;;;13.77;71.46;102261.50;5115561;27;20043;-69
2023/04/16 10:08:52;;;;;;;19.05;10.88;;;;;;;13.88;71.11;102266.59;5124044;27;20161;-69
2023/04/16 10:11:20;;;;;;;19.27;10.57;;;;;;;13.91;70.03;102265.63;5143410;27;20036;-70
2023/04/16 10:13:47;;;;;;;22.98;11.57;;;;;;;13.99;70.38;102269.00;5148147;27;20035;-69
2023/04/16 10:16:15;;;;;;;22.10;12.30;;;;;;;14.12;68.34;102259.88;5129451;27;20043;-70
2023/04/16 10:18:45;;;;;;;20.15;11.57;;;;;;;14.10;68.54;102264.31;5148177;27;20551;-70
2023/04/16 10:21:11;;;;;;;21.20;12.10;;;;;;;14.03;68.44;102267.13;5148332;27;20032;-70
2023/04/16 10:23:39;;;;;;;22.55;10.27;;;;;;;14.07;68.67;102256.44;5133751;27;20471;-69
2023/04/16 10:26:07;;;;;;;12.13;6.28;;;;;;;14.18;68.56;102264.16;5128278;27;20126;-69
2023/04/16 10:28:35;;;;;;;16.60;6.97;;;;;;;14.27;68.74;102263.94;5142864;27;20038;-70
2023/04/16 10:31:08;;;;;;;20.20;7.32;;;;;;;14.37;68.27;102255.75;5127676;27;20047;-69
2023/04/16 10:33:43;;;;;;;16.17;6.70;;;;;;;14.36;66.75;102264.63;5140897;27;20085;-69
2023/04/16 10:36:23;;;;;;;13.13;6.80;;;;;;;14.32;66.71;102269.13;5147753;27;20474;-69
2023/04/16 10:38:51;;;;;;;14.75;7.45;;;;;;;14.63;66.64;102264.88;5145585;27;20043;-70
2023/04/16 10:41:19;;;;;;;12.65;6.80;;;;;;;14.81;66.34;102263.56;5144649;27;20055;-69
2023/04/16 10:43:49;;;;;;;17.25;7.15;;;;;;;14.93;65.62;102265.03;5127555;27;20047;-69
2023/04/16 10:46:37;;;;;;;14.90;6.47;;;;;;;15.04;63.96;102260.31;5130302;27;20802;-70
2023/04/16 10:49:21;;;;;;;14.75;7.07;;;;;;;15.29;63.26;102255.19;5124787;27;20104;-69
2023/04/16 10:51:53;;;;;;;16.40;6.50;;;;;;;15.25;63.97;102266.84;5132200;27;20711;-69
2023/04/16 10:54:28;;;;;;;17.55;7.05;;;;;;;15.29;63.08;102264.97;5141602;27;20051;-69
2023/04/16 10:56:58;;;;;;;14.25;6.88;;;;;;;15.18;63.57;102254.63;5121907;27;20541;-69
2023/04/16 10:59:32;;;;;;;17.10;7.25;;;;;;;15.11;64.23;102255.72;5128560;27;20660;-69
2023/04/16 11:02:06;;;;;;;12.35;6.63;;;;;;;15.20;63.40;102245.72;5150972;27;20775;-70
2023/04/16 11:04:38;;;;;;;;;;;;;;;15.59;63.90;102247.28;5143672;27;20039;-69
2023/04/16 11:07:15;;;;;;;15.25;7.05;;;;;;;15.99;62.59;102238.13;5156185;27;19923;-71
2023/04/16 11:10:00;;;;;;;15.38;6.60;;;;;;;15.98;60.98;102249.69;5152355;27;20384;-71
2023/04/16 11:12:46;;;;;;;14.90;6.57;;;;;;;15.92;59.48;102247.22;5147612;27;20538;-70
2023/04/16 11:15:15;;;;;;;13.75;6.00;;;;;;;15.90;58.98;102241.06;5152997;27;20565;-71
2023/04/16 11:17:49;;;;;;;12.38;5.25;;;;;;;15.91;57.75;102244.63;5133066;27;20046;-71
2023/04/16 11:20:20;;;;;;;17.73;6.70;;;;;;;15.65;59.56;102244.44;5147583;27;20895;-71
2023/04/16 11:22:49;;;;;;;12.13;6.53;;;;;;;15.60;59.58;102250.81;5133023;27;20031;-71
2023/04/16 11:25:30;;;;;;;20.02;6.68;;;;;;;15.68;58.55;102244.34;5151318;27;20031;-70